createdAt,value
2019-01-26T00:00:18.497Z,99765.00
2019-01-26T00:05:19.752Z,99744.00
2019-01-26T00:10:21.013Z,99756.00
2019-01-26T00:15:22.273Z,99745.00
2019-01-26T00:20:23.530Z,99736.00
2019-01-26T00:25:24.821Z,99749.00
2019-01-26T00:30:26.059Z,99748.00
2019-01-26T00:35:27.320Z,99743.00
2019-01-26T00:40:28.762Z,99738.00
2019-01-26T00:45:30.136Z,99729.00
2019-01-26T00:50:31.526Z,99728.00
2019-01-26T00:55:32.840Z,99735.00
2019-01-26T01:00:34.282Z,99738.00
2019-01-26T01:05:35.543Z,99734.00
2019-01-26T01:10:36.810Z,99726.00
2019-01-26T01:15:38.163Z,99729.00
2019-01-26T01:20:39.417Z,99720.00
2019-01-26T01:25:40.771Z,99723.00
2019-01-26T01:30:42.123Z,99710.00
2019-01-26T01:35:43.374Z,99717.00
2019-01-26T01:40:44.605Z,99705.00
2019-01-26T01:45:45.856Z,99702.00
2019-01-26T01:50:47.192Z,99692.00
2019-01-26T01:55:48.432Z,99689.00
2019-01-26T02:00:49.974Z,99684.00
2019-01-26T02:05:51.213Z,99678.00
2019-01-26T02:10:52.471Z,99668.00
2019-01-26T02:15:53.719Z,99681.00
2019-01-26T02:20:55.062Z,99666.00
2019-01-26T02:25:56.320Z,99650.00
2019-01-26T02:30:57.848Z,99641.00
2019-01-26T02:35:59.088Z,99649.00
2019-01-26T02:41:00.343Z,99666.00
2019-01-26T02:46:01.596Z,99654.00
2019-01-26T02:51:02.851Z,99654.00
2019-01-26T02:56:04.184Z,99658.00
2019-01-26T03:01:05.431Z,99654.00
2019-01-26T03:06:06.876Z,99650.00
2019-01-26T03:11:08.148Z,99647.00
2019-01-26T03:16:09.477Z,99632.00
2019-01-26T03:21:10.724Z,99625.00
2019-01-26T03:26:11.958Z,99626.00
2019-01-26T03:31:13.195Z,99629.00
2019-01-26T03:36:14.449Z,99644.00
2019-01-26T03:41:15.684Z,99654.00
2019-01-26T03:46:17.152Z,99638.00
2019-01-26T03:51:18.410Z,99644.00
2019-01-26T03:56:19.754Z,99647.00
2019-01-26T04:01:21.282Z,99643.00
2019-01-26T04:06:22.520Z,99639.00
2019-01-26T04:11:23.758Z,99627.00
2019-01-26T04:16:24.989Z,99613.00
2019-01-26T04:21:26.234Z,99599.00
2019-01-26T04:26:27.478Z,99587.00
2019-01-26T04:31:28.821Z,99573.00
2019-01-26T04:36:30.153Z,99562.00
2019-01-26T04:41:31.408Z,99564.00
2019-01-26T04:46:32.642Z,99584.00
2019-01-26T04:51:33.885Z,99588.00
2019-01-26T04:56:35.146Z,99594.00
2019-01-26T05:01:36.375Z,99575.00
2019-01-26T05:06:37.604Z,99588.00
2019-01-26T05:11:38.851Z,99585.00
2019-01-26T05:16:40.085Z,99591.00
2019-01-26T05:21:41.328Z,99588.00
2019-01-26T05:26:42.575Z,99601.00
2019-01-26T05:31:43.813Z,99601.00
2019-01-26T05:36:45.064Z,99589.00
2019-01-26T05:41:46.302Z,99581.00
2019-01-26T05:46:47.533Z,99574.00
2019-01-26T05:51:48.776Z,99575.00
2019-01-26T05:56:50.072Z,99574.00
2019-01-26T06:01:51.286Z,99586.00
2019-01-26T06:06:52.540Z,99588.00
2019-01-26T06:11:53.780Z,99577.00
2019-01-26T06:16:55.030Z,99587.00
2019-01-26T06:21:56.299Z,99586.00
2019-01-26T06:26:57.574Z,99574.00
2019-01-26T06:31:58.821Z,99577.00
2019-01-26T06:37:00.388Z,99575.00
2019-01-26T06:42:01.837Z,99585.00
2019-01-26T06:47:03.388Z,99577.00
2019-01-26T06:52:05.044Z,99593.00
2019-01-26T06:57:06.423Z,99582.00
2019-01-26T07:02:07.667Z,99590.00
2019-01-26T07:07:10.838Z,99590.00
2019-01-26T07:12:12.228Z,99599.00
2019-01-26T07:17:13.482Z,99590.00
2019-01-26T07:22:14.730Z,99600.00
2019-01-26T07:27:16.040Z,99596.00
2019-01-26T07:32:17.281Z,99600.00
2019-01-26T07:37:18.522Z,99602.00
2019-01-26T07:42:19.780Z,99612.00
2019-01-26T07:47:21.047Z,99590.00
2019-01-26T07:52:22.328Z,99592.00
2019-01-26T07:57:23.575Z,99581.00
2019-01-26T08:02:24.820Z,99590.00
2019-01-26T08:07:26.065Z,99590.00
2019-01-26T08:12:27.300Z,99593.00
2019-01-26T08:17:28.869Z,99594.00
2019-01-26T08:22:30.130Z,99594.00
2019-01-26T08:27:31.417Z,99588.00
2019-01-26T08:32:32.666Z,99574.00
2019-01-26T08:37:33.935Z,99580.00
2019-01-26T08:42:35.490Z,99583.00
2019-01-26T08:47:36.760Z,99570.00
2019-01-26T08:52:38.154Z,99574.00
2019-01-26T08:57:41.148Z,99581.00
2019-01-26T09:02:53.342Z,99575.00
2019-01-26T09:07:54.613Z,99581.00
2019-01-26T09:12:55.876Z,99565.00
2019-01-26T09:17:57.139Z,99562.00
2019-01-26T09:22:58.387Z,99556.00
2019-01-26T09:27:59.842Z,99557.00
2019-01-26T09:33:01.222Z,99563.00
2019-01-26T09:38:03.656Z,99561.00
2019-01-26T09:43:05.340Z,99555.00
2019-01-26T09:48:06.904Z,99562.00
2019-01-26T09:53:08.295Z,99574.00
2019-01-26T09:58:09.843Z,99562.00
2019-01-26T10:03:11.090Z,99574.00
2019-01-26T10:08:12.345Z,99569.00
2019-01-26T10:13:13.608Z,99571.00
2019-01-26T10:18:14.886Z,99569.00
2019-01-26T10:23:16.159Z,99564.00
2019-01-26T10:28:17.421Z,99552.00
2019-01-26T10:33:18.940Z,99551.00
2019-01-26T10:38:20.237Z,99548.00
2019-01-26T10:43:41.593Z,99553.00
2019-01-26T10:48:42.886Z,99541.00
2019-01-26T10:53:44.125Z,99544.00
2019-01-26T10:58:45.509Z,99539.00
2019-01-26T11:03:46.838Z,99532.00
2019-01-26T11:08:48.197Z,99524.00
2019-01-26T11:13:50.087Z,99523.00
2019-01-26T11:18:51.345Z,99517.00
2019-01-26T11:23:52.601Z,99506.00
2019-01-26T11:28:53.865Z,99501.00
2019-01-26T11:33:55.128Z,99504.00
2019-01-26T11:38:56.404Z,99493.00
2019-01-26T11:43:57.659Z,99494.00
2019-01-26T11:48:58.887Z,99473.00
2019-01-26T11:54:00.387Z,99472.00
2019-01-26T11:59:01.656Z,99461.00
2019-01-26T12:04:05.108Z,99457.00
2019-01-26T12:09:07.660Z,99454.00
2019-01-26T12:14:08.927Z,99462.00
2019-01-26T12:19:10.185Z,99444.00
2019-01-26T12:24:12.081Z,99437.00
2019-01-26T12:29:13.415Z,99436.00
2019-01-26T12:34:14.722Z,99431.00
2019-01-26T12:39:15.967Z,99425.00
2019-01-26T12:44:17.217Z,99422.00
2019-01-26T12:49:18.499Z,99420.00
2019-01-26T12:54:19.778Z,99430.00
2019-01-26T12:59:21.035Z,99418.00
2019-01-26T13:04:22.316Z,99409.00
2019-01-26T13:09:23.594Z,99398.00
2019-01-26T13:14:24.828Z,99395.00
2019-01-26T13:19:26.066Z,99401.00
2019-01-26T13:24:27.293Z,99394.00
2019-01-26T13:29:28.513Z,99390.00
2019-01-26T13:34:29.782Z,99376.00
2019-01-26T13:39:31.021Z,99371.00
2019-01-26T13:44:32.319Z,99377.00
2019-01-26T13:49:33.582Z,99378.00
2019-01-26T13:54:34.827Z,99369.00
2019-01-26T13:59:36.086Z,99370.00
2019-01-26T14:04:38.773Z,99367.00
2019-01-26T14:09:40.115Z,99368.00
2019-01-26T14:14:41.388Z,99363.00
2019-01-26T14:19:42.748Z,99372.00
2019-01-26T14:24:44.072Z,99372.00
2019-01-26T14:29:45.337Z,99368.00
2019-01-26T14:34:47.480Z,99362.00
2019-01-26T14:39:48.749Z,99361.00
2019-01-26T14:44:50.009Z,99352.00
2019-01-26T14:49:51.258Z,99350.00
2019-01-26T14:54:53.534Z,99345.00
2019-01-26T14:59:54.893Z,99338.00
2019-01-26T15:04:56.140Z,99306.00
2019-01-26T15:09:57.417Z,99295.00
2019-01-26T15:14:58.665Z,99296.00
2019-01-26T15:20:05.783Z,99285.00
2019-01-26T15:25:06.885Z,99284.00
2019-01-26T15:30:27.368Z,99279.00
2019-01-26T15:35:29.058Z,99262.00
2019-01-26T15:40:30.304Z,99269.00
2019-01-26T15:45:38.591Z,99265.00
2019-01-26T15:50:39.971Z,99265.00
2019-01-26T15:55:41.363Z,99261.00
2019-01-26T16:00:43.500Z,99261.00
2019-01-26T16:05:44.768Z,99248.00
2019-01-26T16:10:46.031Z,99245.00
2019-01-26T16:15:47.282Z,99241.00
2019-01-26T16:20:48.549Z,99234.00
2019-01-26T16:25:49.939Z,99237.00
2019-01-26T16:30:51.255Z,99234.00
2019-01-26T16:35:52.520Z,99224.00
2019-01-26T16:40:53.762Z,99223.00
2019-01-26T16:45:55.001Z,99208.00
2019-01-26T16:50:56.296Z,99215.00
2019-01-26T16:55:57.574Z,99195.00
2019-01-26T17:00:59.080Z,99193.00
2019-01-26T17:06:00.287Z,99190.00
2019-01-26T17:11:01.552Z,99181.00
2019-01-26T17:16:03.036Z,99175.00
2019-01-26T17:21:04.352Z,99176.00
2019-01-26T17:26:05.731Z,99172.00
2019-01-26T17:31:07.039Z,99167.00
2019-01-26T17:36:08.326Z,99168.00
2019-01-26T17:41:09.570Z,99154.00
2019-01-26T17:46:10.911Z,99130.00
2019-01-26T17:51:12.200Z,99129.00
2019-01-26T17:56:13.457Z,99122.00
2019-01-26T18:01:14.723Z,99111.00
2019-01-26T18:06:16.028Z,99110.00
2019-01-26T18:11:17.430Z,99101.00
2019-01-26T18:16:18.693Z,99092.00
2019-01-26T18:21:19.995Z,99079.00
2019-01-26T18:26:21.355Z,99079.00
2019-01-26T18:31:22.684Z,99071.00
2019-01-26T18:36:24.146Z,99064.00
2019-01-26T18:41:25.420Z,99054.00
2019-01-26T18:46:26.690Z,99050.00
2019-01-26T18:51:27.999Z,99036.00
2019-01-26T18:56:34.375Z,99029.00
2019-01-26T19:01:35.834Z,99027.00
2019-01-26T19:06:37.109Z,99022.00
2019-01-26T19:11:38.407Z,98998.00
2019-01-26T19:16:39.694Z,99000.00
2019-01-26T19:21:41.070Z,98987.00
2019-01-26T19:26:42.343Z,98984.00
2019-01-26T19:31:43.749Z,98973.00
2019-01-26T19:36:45.233Z,98961.00
2019-01-26T19:41:46.515Z,98965.00
2019-01-26T19:46:47.893Z,98952.00
2019-01-26T19:51:49.150Z,98942.00
2019-01-26T19:56:50.674Z,98931.00
2019-01-26T20:01:52.548Z,98912.00
2019-01-26T20:06:54.083Z,98915.00
2019-01-26T20:11:55.465Z,98889.00
2019-01-26T20:16:56.727Z,98875.00
2019-01-26T20:21:57.977Z,98878.00
2019-01-26T20:26:59.241Z,98872.00
2019-01-26T20:32:00.644Z,98858.00
2019-01-26T20:37:02.003Z,98841.00
2019-01-26T20:42:03.671Z,98826.00
2019-01-26T20:47:05.134Z,98817.00
2019-01-26T20:52:06.704Z,98811.00
2019-01-26T20:57:08.057Z,98810.00
2019-01-26T21:02:09.335Z,98809.00
2019-01-26T21:07:12.507Z,98796.00
2019-01-26T21:12:14.557Z,98782.00
2019-01-26T21:17:15.872Z,98782.00
2019-01-26T21:22:17.177Z,98771.00
2019-01-26T21:27:18.418Z,98763.00
2019-01-26T21:32:19.703Z,98754.00
2019-01-26T21:37:21.178Z,98763.00
2019-01-26T21:42:22.557Z,98762.00
2019-01-26T21:47:23.910Z,98753.00
2019-01-26T21:52:25.204Z,98735.00
2019-01-26T21:57:26.514Z,98736.00
2019-01-26T22:02:27.771Z,98725.00
2019-01-26T22:07:29.149Z,98708.00
2019-01-26T22:12:30.520Z,98710.00
2019-01-26T22:17:31.896Z,98701.00
2019-01-26T22:22:33.158Z,98685.00
2019-01-26T22:27:34.521Z,98674.00
2019-01-26T22:32:35.847Z,98659.00
2019-01-26T22:37:37.349Z,98661.00
2019-01-26T22:42:38.646Z,98629.00
2019-01-26T22:47:39.942Z,98627.00
2019-01-26T22:52:41.518Z,98620.00
2019-01-26T22:57:43.307Z,98618.00
2019-01-26T23:02:44.866Z,98607.00
2019-01-26T23:07:46.328Z,98588.00
2019-01-26T23:12:53.324Z,98586.00
2019-01-26T23:18:27.429Z,98564.00
2019-01-26T23:23:39.824Z,98546.00
2019-01-26T23:28:49.939Z,98524.00
2019-01-26T23:33:52.026Z,98516.00
2019-01-26T23:38:53.378Z,98512.00
2019-01-26T23:43:54.645Z,98482.00
2019-01-26T23:48:55.879Z,98481.00
2019-01-26T23:53:57.149Z,98480.00
2019-01-26T23:58:58.428Z,98453.00
